createdAt,value
2023-02-27T00:00:01.790Z,0.00
2023-02-27T00:02:41.752Z,0.00
2023-02-27T00:05:19.555Z,0.00
2023-02-27T00:07:56.169Z,-0.08
2023-02-27T00:10:32.361Z,-0.10
2023-02-27T00:13:08.809Z,-0.10
2023-02-27T00:15:48.433Z,-0.10
2023-02-27T00:18:24.897Z,-0.10
2023-02-27T00:21:01.214Z,-0.10
2023-02-27T00:23:37.487Z,-0.10
2023-02-27T00:26:13.921Z,-0.10
2023-02-27T00:28:50.517Z,-0.10
2023-02-27T00:31:27.378Z,-0.10
2023-02-27T00:34:04.352Z,-0.10
2023-02-27T00:36:40.774Z,-0.10
2023-02-27T00:39:17.058Z,-0.18
2023-02-27T00:41:53.664Z,-0.20
2023-02-27T00:44:30.127Z,-0.20
2023-02-27T00:47:06.635Z,-0.20
2023-02-27T00:49:42.940Z,-0.24
2023-02-27T00:52:19.520Z,-0.30
2023-02-27T00:54:55.896Z,-0.30
2023-02-27T00:57:32.381Z,-0.30
2023-02-27T01:00:12.591Z,-0.30
2023-02-27T01:02:48.880Z,-0.30
2023-02-27T01:05:25.491Z,-0.30
2023-02-27T01:08:01.818Z,-0.30
2023-02-27T01:10:38.803Z,-0.30
2023-02-27T01:13:16.244Z,-0.30
2023-02-27T01:15:53.073Z,-0.32
2023-02-27T01:18:29.353Z,-0.40
2023-02-27T01:21:06.827Z,-0.36
2023-02-27T01:23:43.742Z,-0.40
2023-02-27T01:26:20.048Z,-0.40
2023-02-27T01:28:56.357Z,-0.40
2023-02-27T01:31:32.825Z,-0.40
2023-02-27T01:34:09.275Z,-0.40
2023-02-27T01:36:45.740Z,-0.40
2023-02-27T01:39:26.306Z,-0.40
2023-02-27T01:42:02.774Z,-0.40
2023-02-27T01:45:27.699Z,-0.40
2023-02-27T01:48:20.580Z,-0.40
2023-02-27T01:51:06.400Z,-0.40
2023-02-27T01:53:47.007Z,-0.40
2023-02-27T01:56:28.670Z,-0.40
2023-02-27T01:59:11.371Z,-0.40
2023-02-27T02:01:47.742Z,-0.40
2023-02-27T02:04:32.519Z,-0.40
2023-02-27T02:07:14.484Z,-0.40
2023-02-27T02:09:54.391Z,-0.40
2023-02-27T02:12:37.198Z,-0.46
2023-02-27T02:15:15.990Z,-0.50
2023-02-27T02:18:10.007Z,-0.50
2023-02-27T02:21:51.719Z,-0.50
2023-02-27T02:25:31.892Z,-0.50
2023-02-27T02:28:48.945Z,-0.56
2023-02-27T02:32:24.464Z,-0.60
2023-02-27T02:36:00.533Z,-0.60
2023-02-27T02:39:10.234Z,-0.60
2023-02-27T02:42:05.542Z,-0.60
2023-02-27T02:44:58.610Z,-0.60
2023-02-27T02:47:53.218Z,-0.60
2023-02-27T02:50:42.352Z,-0.62
2023-02-27T02:53:37.212Z,-0.62
2023-02-27T02:56:26.231Z,-0.70
2023-02-27T02:59:12.097Z,-0.70
2023-02-27T03:01:55.201Z,-0.70
2023-02-27T03:04:40.700Z,-0.70
2023-02-27T03:07:25.451Z,-0.70
2023-02-27T03:10:13.976Z,-0.70
2023-02-27T03:13:06.400Z,-0.70
2023-02-27T03:15:53.393Z,-0.70
2023-02-27T03:18:37.041Z,-0.70
2023-02-27T03:21:22.867Z,-0.68
2023-02-27T03:24:07.480Z,-0.64
2023-02-27T03:26:48.610Z,-0.60
2023-02-27T03:29:38.795Z,-0.60
2023-02-27T03:32:26.462Z,-0.60
2023-02-27T03:35:04.740Z,-0.60
2023-02-27T03:37:59.454Z,-0.60
2023-02-27T03:40:42.148Z,-0.60
2023-02-27T03:43:32.202Z,-0.60
2023-02-27T03:46:15.664Z,-0.60
2023-02-27T03:48:52.238Z,-0.60
2023-02-27T03:51:31.647Z,-0.60
2023-02-27T03:54:15.734Z,-0.60
2023-02-27T03:57:01.285Z,-0.60
2023-02-27T03:59:39.720Z,-0.60
2023-02-27T04:02:17.005Z,-0.60
2023-02-27T04:04:55.109Z,-0.60
2023-02-27T04:08:13.972Z,-0.60
2023-02-27T04:11:35.925Z,-0.60
2023-02-27T04:14:48.633Z,-0.60
2023-02-27T04:17:34.153Z,-0.60
2023-02-27T04:20:46.064Z,-0.60
2023-02-27T04:23:32.996Z,-0.60
2023-02-27T04:26:29.103Z,-0.60
2023-02-27T04:29:17.884Z,-0.60
2023-02-27T04:32:03.653Z,-0.60
2023-02-27T04:34:48.860Z,-0.60
2023-02-27T04:37:35.116Z,-0.60
2023-02-27T04:40:18.586Z,-0.60
2023-02-27T04:43:01.266Z,-0.60
2023-02-27T04:45:41.587Z,-0.54
2023-02-27T04:48:26.480Z,-0.50
2023-02-27T04:51:12.361Z,-0.52
2023-02-27T04:53:56.035Z,-0.50
2023-02-27T04:56:40.562Z,-0.50
2023-02-27T04:59:26.005Z,-0.50
2023-02-27T05:02:08.430Z,-0.50
2023-02-27T05:04:49.746Z,-0.48
2023-02-27T05:07:38.887Z,-0.44
2023-02-27T05:10:28.590Z,-0.40
2023-02-27T05:13:13.151Z,-0.40
2023-02-27T05:15:56.690Z,-0.40
2023-02-27T05:18:34.018Z,-0.40
2023-02-27T05:21:28.915Z,-0.40
2023-02-27T05:24:25.657Z,-0.36
2023-02-27T05:27:26.075Z,-0.32
2023-02-27T05:30:07.316Z,-0.40
2023-02-27T05:32:54.259Z,-0.40
2023-02-27T05:35:44.613Z,-0.38
2023-02-27T05:38:28.715Z,-0.36
2023-02-27T05:41:15.592Z,-0.38
2023-02-27T05:43:59.935Z,-0.38
2023-02-27T05:46:42.545Z,-0.40
2023-02-27T05:49:28.004Z,-0.38
2023-02-27T05:52:10.695Z,-0.40
2023-02-27T05:54:56.036Z,-0.38
2023-02-27T05:57:40.332Z,-0.36
2023-02-27T06:00:27.251Z,-0.30
2023-02-27T06:03:04.650Z,-0.36
2023-02-27T06:05:44.216Z,-0.34
2023-02-27T06:08:21.061Z,-0.30
2023-02-27T06:10:58.097Z,-0.30
2023-02-27T06:13:34.540Z,-0.30
2023-02-27T06:16:15.907Z,-0.30
2023-02-27T06:18:52.162Z,-0.30
2023-02-27T06:21:28.491Z,-0.30
2023-02-27T06:24:05.237Z,-0.24
2023-02-27T06:26:41.751Z,-0.22
2023-02-27T06:29:18.018Z,-0.20
2023-02-27T06:31:54.295Z,-0.20
2023-02-27T06:34:31.011Z,-0.20
2023-02-27T06:37:08.342Z,-0.18
2023-02-27T06:39:44.820Z,-0.18
2023-02-27T06:42:21.734Z,-0.10
2023-02-27T06:44:58.169Z,-0.10
2023-02-27T06:47:35.191Z,-0.10
2023-02-27T06:50:16.208Z,-0.10
2023-02-27T06:52:52.660Z,-0.10
2023-02-27T06:55:29.280Z,-0.10
2023-02-27T06:58:06.084Z,-0.10
2023-02-27T07:00:43.266Z,-0.10
2023-02-27T07:03:21.198Z,-0.10
2023-02-27T07:05:57.772Z,0.00
2023-02-27T07:08:36.116Z,0.00
2023-02-27T07:11:13.693Z,0.06
2023-02-27T07:13:50.206Z,0.10
2023-02-27T07:16:26.922Z,0.12
2023-02-27T07:19:03.385Z,0.20
2023-02-27T07:21:39.977Z,0.20
2023-02-27T07:24:16.588Z,0.30
2023-02-27T07:26:54.443Z,0.30
2023-02-27T07:29:30.764Z,0.40
2023-02-27T07:32:08.150Z,0.50
2023-02-27T07:34:44.477Z,0.56
2023-02-27T07:37:20.817Z,0.60
2023-02-27T07:39:57.294Z,0.70
2023-02-27T07:42:34.034Z,0.78
2023-02-27T07:45:13.280Z,0.80
2023-02-27T07:47:49.931Z,0.90
2023-02-27T07:50:26.293Z,0.90
2023-02-27T07:53:02.636Z,1.00
2023-02-27T07:55:38.935Z,1.10
2023-02-27T07:58:15.466Z,1.12
2023-02-27T08:00:52.108Z,1.20
2023-02-27T08:03:28.422Z,1.30
2023-02-27T08:06:04.992Z,1.38
2023-02-27T08:08:42.216Z,1.40
2023-02-27T08:11:19.129Z,1.50
2023-02-27T08:14:00.497Z,1.50
2023-02-27T08:16:37.979Z,1.60
2023-02-27T08:19:16.979Z,1.62
2023-02-27T08:21:53.232Z,1.70
2023-02-27T08:24:30.592Z,1.80
2023-02-27T08:27:07.050Z,1.90
2023-02-27T08:29:45.510Z,2.00
2023-02-27T08:32:21.912Z,2.00
2023-02-27T08:34:58.289Z,2.10
2023-02-27T08:37:34.932Z,2.10
2023-02-27T08:40:14.631Z,2.20
2023-02-27T08:42:52.312Z,2.28
2023-02-27T08:45:29.443Z,2.40
2023-02-27T08:48:06.113Z,2.50
2023-02-27T08:50:43.269Z,2.60
2023-02-27T08:53:19.710Z,2.60
2023-02-27T08:55:56.648Z,2.68
2023-02-27T08:58:34.723Z,2.70
2023-02-27T09:01:11.673Z,2.84
2023-02-27T09:03:48.134Z,2.96
2023-02-27T09:06:26.231Z,3.00
2023-02-27T09:09:03.804Z,3.08
2023-02-27T09:11:40.063Z,3.10
2023-02-27T09:14:16.543Z,3.10
2023-02-27T09:16:53.023Z,3.20
2023-02-27T09:19:29.847Z,3.20
2023-02-27T09:22:06.172Z,3.30
2023-02-27T09:24:42.633Z,3.32
2023-02-27T09:27:19.623Z,3.30
2023-02-27T09:29:56.520Z,3.36
2023-02-27T09:32:33.369Z,3.40
2023-02-27T09:35:12.079Z,3.50
2023-02-27T09:37:49.855Z,3.50
2023-02-27T09:40:32.974Z,3.50
2023-02-27T09:43:19.642Z,3.50
2023-02-27T09:45:58.876Z,3.60
2023-02-27T09:48:45.714Z,3.60
2023-02-27T09:51:24.215Z,3.60
2023-02-27T09:54:06.064Z,3.70
2023-02-27T09:56:49.693Z,3.70
2023-02-27T09:59:40.136Z,3.60
2023-02-27T10:02:47.388Z,3.50
2023-02-27T10:05:38.695Z,3.40
2023-02-27T10:08:27.089Z,3.30
2023-02-27T10:11:13.188Z,3.20
2023-02-27T10:14:11.071Z,3.10
2023-02-27T10:16:50.898Z,2.90
2023-02-27T10:19:35.469Z,2.74
2023-02-27T10:22:22.817Z,2.56
2023-02-27T10:25:15.621Z,2.40
2023-02-27T10:28:14.883Z,2.30
2023-02-27T10:30:58.740Z,2.16
2023-02-27T10:33:40.028Z,2.10
2023-02-27T10:36:32.459Z,2.20
2023-02-27T10:39:16.943Z,2.10
2023-02-27T10:41:54.483Z,2.00
2023-02-27T10:44:31.808Z,1.94
2023-02-27T10:47:08.265Z,1.86
2023-02-27T10:49:46.698Z,1.70
2023-02-27T10:52:23.526Z,1.50
2023-02-27T10:55:20.871Z,1.40
2023-02-27T10:57:58.989Z,1.30
2023-02-27T11:00:55.933Z,1.30
2023-02-27T11:03:39.938Z,1.20
2023-02-27T11:06:27.533Z,1.10
2023-02-27T11:09:27.375Z,1.10
2023-02-27T11:12:25.186Z,1.00
2023-02-27T11:15:04.196Z,1.00
2023-02-27T11:17:40.555Z,0.90
2023-02-27T11:20:43.569Z,0.80
2023-02-27T11:23:25.256Z,0.80
2023-02-27T11:26:21.817Z,0.80
2023-02-27T11:29:18.530Z,0.80
2023-02-27T11:32:01.135Z,0.90
2023-02-27T11:34:47.609Z,1.00
2023-02-27T11:37:34.906Z,1.00
2023-02-27T11:40:24.034Z,1.08
2023-02-27T11:43:07.229Z,1.10
2023-02-27T11:46:19.452Z,1.10
2023-02-27T11:48:54.100Z,1.10
2023-02-27T11:51:58.120Z,1.10
2023-02-27T11:54:42.604Z,1.20
2023-02-27T11:57:30.221Z,1.30
2023-02-27T12:00:20.180Z,1.30
2023-02-27T12:03:06.660Z,1.40
2023-02-27T12:05:51.564Z,1.50
2023-02-27T12:08:42.850Z,1.44
2023-02-27T12:11:30.548Z,1.40
2023-02-27T12:14:18.014Z,1.40
2023-02-27T12:17:00.446Z,1.40
2023-02-27T12:19:46.727Z,1.40
2023-02-27T12:22:30.344Z,1.40
2023-02-27T12:25:16.932Z,1.40
2023-02-27T12:28:04.095Z,1.40
2023-02-27T12:30:48.976Z,1.40
2023-02-27T12:33:42.381Z,1.40
2023-02-27T12:36:19.448Z,1.40
2023-02-27T12:38:56.613Z,1.40
2023-02-27T12:42:16.247Z,1.40
2023-02-27T12:45:40.107Z,1.32
2023-02-27T12:48:45.104Z,1.30
2023-02-27T12:51:41.091Z,1.30
2023-02-27T12:54:41.099Z,1.30
2023-02-27T12:57:38.060Z,1.30
2023-02-27T13:00:23.005Z,1.30
2023-02-27T13:03:18.029Z,1.32
2023-02-27T13:06:10.842Z,1.40
2023-02-27T13:09:25.878Z,1.40
2023-02-27T13:12:19.137Z,1.50
2023-02-27T13:15:04.476Z,1.50
2023-02-27T13:17:53.334Z,1.60
2023-02-27T13:20:45.761Z,1.70
2023-02-27T13:23:35.007Z,1.80
2023-02-27T13:26:23.355Z,1.80
2023-02-27T13:29:01.402Z,1.84
2023-02-27T13:31:56.053Z,1.90
2023-02-27T13:34:41.790Z,1.90
2023-02-27T13:37:18.211Z,1.90
2023-02-27T13:40:02.186Z,2.00
2023-02-27T13:43:27.320Z,2.02
2023-02-27T13:46:22.315Z,2.10
2023-02-27T13:49:29.486Z,2.20
2023-02-27T13:52:07.750Z,2.20
2023-02-27T13:54:47.448Z,2.20
2023-02-27T13:57:32.614Z,2.20
2023-02-27T14:00:24.146Z,2.20
2023-02-27T14:03:07.687Z,2.12
2023-02-27T14:05:49.961Z,2.14
2023-02-27T14:08:30.607Z,2.16
2023-02-27T14:11:24.786Z,2.14
2023-02-27T14:14:11.058Z,2.10
2023-02-27T14:17:05.529Z,2.10
2023-02-27T14:20:00.520Z,2.10
2023-02-27T14:23:25.623Z,2.00
2023-02-27T14:26:15.576Z,2.00
2023-02-27T14:28:58.173Z,1.90
2023-02-27T14:31:40.590Z,1.90
2023-02-27T14:34:23.411Z,1.82
2023-02-27T14:37:03.509Z,1.80
2023-02-27T14:39:41.551Z,1.80
2023-02-27T14:42:58.984Z,1.70
2023-02-27T14:45:36.049Z,1.66
2023-02-27T14:48:26.809Z,1.60
2023-02-27T14:51:06.790Z,1.60
2023-02-27T14:53:43.357Z,1.60
2023-02-27T14:56:24.759Z,1.56
2023-02-27T14:59:04.609Z,1.50
2023-02-27T15:01:42.992Z,1.50
2023-02-27T15:04:27.523Z,1.40
2023-02-27T15:07:05.306Z,1.40
2023-02-27T15:09:49.214Z,1.36
2023-02-27T15:12:28.164Z,1.30
2023-02-27T15:15:11.320Z,1.24
2023-02-27T15:17:48.950Z,1.20
2023-02-27T15:20:36.132Z,1.10
2023-02-27T15:26:16.803Z,0.92
2023-02-27T15:28:54.044Z,0.90
2023-02-27T15:31:32.428Z,0.80
2023-02-27T15:34:16.060Z,0.80
2023-02-27T15:36:58.525Z,0.80
2023-02-27T15:39:37.904Z,0.70
2023-02-27T15:42:17.043Z,0.70
2023-02-27T15:44:54.497Z,0.70
2023-02-27T15:47:33.974Z,0.70
2023-02-27T15:50:29.731Z,0.64
2023-02-27T15:53:14.889Z,0.60
2023-02-27T15:55:56.460Z,0.60
2023-02-27T15:58:38.730Z,0.60
2023-02-27T16:01:22.006Z,0.50
2023-02-27T16:04:02.291Z,0.50
2023-02-27T16:06:42.801Z,0.50
2023-02-27T16:09:30.451Z,0.40
2023-02-27T16:12:38.176Z,0.44
2023-02-27T16:15:36.568Z,0.40
2023-02-27T16:18:35.997Z,0.40
2023-02-27T16:21:20.140Z,0.40
2023-02-27T16:24:17.582Z,0.30
2023-02-27T16:26:57.074Z,0.30
2023-02-27T16:29:44.304Z,0.26
2023-02-27T16:32:30.382Z,0.20
2023-02-27T16:35:17.881Z,0.20
2023-02-27T16:38:01.025Z,0.20
2023-02-27T16:40:37.744Z,0.20
2023-02-27T16:43:14.094Z,0.20
2023-02-27T16:45:58.346Z,0.20
2023-02-27T16:48:34.647Z,0.20
2023-02-27T16:51:19.065Z,0.20
2023-02-27T16:53:56.908Z,0.20
2023-02-27T16:56:38.458Z,0.20
2023-02-27T16:59:34.231Z,0.20
2023-02-27T17:02:16.395Z,0.28
2023-02-27T17:04:52.348Z,0.22
2023-02-27T17:07:29.386Z,0.20
2023-02-27T17:10:06.172Z,0.20
2023-02-27T17:12:44.089Z,0.20
2023-02-27T17:15:22.087Z,0.20
2023-02-27T17:17:58.644Z,0.20
2023-02-27T17:20:35.052Z,0.20
2023-02-27T17:23:14.505Z,0.20
2023-02-27T17:25:50.920Z,0.20
2023-02-27T17:28:28.006Z,0.20
2023-02-27T17:31:08.553Z,0.20
2023-02-27T17:33:45.657Z,0.20
2023-02-27T17:36:23.578Z,0.20
2023-02-27T17:39:03.698Z,0.20
2023-02-27T17:41:40.371Z,0.20
2023-02-27T17:44:17.721Z,0.20
2023-02-27T17:46:54.053Z,0.20
2023-02-27T17:49:30.523Z,0.20
2023-02-27T17:52:08.138Z,0.20
2023-02-27T17:54:44.385Z,0.20
2023-02-27T17:57:20.924Z,0.20
2023-02-27T17:59:57.291Z,0.16
2023-02-27T18:02:33.792Z,0.16
2023-02-27T18:05:12.177Z,0.10
2023-02-27T18:07:48.861Z,0.10
2023-02-27T18:10:25.571Z,0.10
2023-02-27T18:13:04.618Z,0.10
2023-02-27T18:15:42.346Z,0.10
2023-02-27T18:18:19.292Z,0.10
2023-02-27T18:21:09.231Z,0.12
2023-02-27T18:23:46.190Z,0.12
2023-02-27T18:26:30.515Z,0.10
2023-02-27T18:29:10.912Z,0.10
2023-02-27T18:31:53.607Z,0.10
2023-02-27T18:34:30.988Z,0.10
2023-02-27T18:37:07.476Z,0.10
2023-02-27T18:39:43.893Z,0.10
2023-02-27T18:42:20.384Z,0.10
2023-02-27T18:44:56.943Z,0.10
2023-02-27T18:47:33.746Z,0.10
2023-02-27T18:50:14.270Z,0.10
2023-02-27T18:52:51.781Z,0.10
2023-02-27T18:55:28.553Z,0.10
2023-02-27T18:58:06.204Z,0.10
2023-02-27T19:00:44.063Z,0.10
2023-02-27T19:03:20.590Z,0.10
2023-02-27T19:05:58.315Z,0.10
2023-02-27T19:08:34.662Z,0.10
2023-02-27T19:11:11.325Z,0.10
2023-02-27T19:13:48.540Z,0.10
2023-02-27T19:16:25.842Z,0.10
2023-02-27T19:19:05.265Z,0.10
2023-02-27T19:21:42.054Z,0.10
2023-02-27T19:24:19.239Z,0.10
2023-02-27T19:26:56.754Z,0.10
2023-02-27T19:29:33.328Z,0.10
2023-02-27T19:32:11.270Z,0.10
2023-02-27T19:34:48.482Z,0.10
2023-02-27T19:37:25.258Z,0.10
2023-02-27T19:40:01.992Z,0.10
2023-02-27T19:42:39.053Z,0.10
2023-02-27T19:45:17.001Z,0.02
2023-02-27T19:47:54.349Z,0.00
2023-02-27T19:50:31.378Z,0.00
2023-02-27T19:53:08.251Z,0.00
2023-02-27T19:55:44.830Z,0.00
2023-02-27T19:58:22.009Z,0.00
2023-02-27T20:00:58.798Z,0.00
2023-02-27T20:03:36.492Z,0.00
2023-02-27T20:06:23.422Z,0.00
2023-02-27T20:09:01.378Z,0.00
2023-02-27T20:11:38.071Z,0.00
2023-02-27T20:14:15.650Z,-0.10
2023-02-27T20:16:53.111Z,-0.10
2023-02-27T20:19:29.608Z,-0.10
2023-02-27T20:22:07.351Z,-0.10
2023-02-27T20:24:45.999Z,-0.10
2023-02-27T20:27:22.509Z,-0.10
2023-02-27T20:30:00.128Z,-0.10
2023-02-27T20:32:36.795Z,-0.10
2023-02-27T20:35:15.705Z,-0.10
2023-02-27T20:37:54.057Z,-0.10
2023-02-27T20:41:16.572Z,-0.10
2023-02-27T20:43:59.179Z,-0.10
2023-02-27T20:46:36.380Z,-0.10
2023-02-27T20:49:15.711Z,-0.10
2023-02-27T20:51:52.913Z,-0.10
2023-02-27T20:54:29.319Z,-0.10
2023-02-27T20:57:06.084Z,-0.10
2023-02-27T20:59:42.901Z,-0.10
2023-02-27T21:02:19.170Z,-0.10
2023-02-27T21:04:57.598Z,-0.10
2023-02-27T21:07:34.478Z,-0.10
2023-02-27T21:10:13.638Z,-0.10
2023-02-27T21:12:49.981Z,-0.10
2023-02-27T21:15:26.278Z,-0.12
2023-02-27T21:18:02.648Z,-0.20
2023-02-27T21:20:40.446Z,-0.20
2023-02-27T21:23:17.122Z,-0.20
2023-02-27T21:25:54.009Z,-0.20
2023-02-27T21:28:30.379Z,-0.20
2023-02-27T21:31:11.483Z,-0.20
2023-02-27T21:33:48.514Z,-0.20
2023-02-27T21:36:32.117Z,-0.20
2023-02-27T21:39:13.473Z,-0.22
2023-02-27T21:41:50.462Z,-0.20
2023-02-27T21:44:29.762Z,-0.20
2023-02-27T21:47:10.475Z,-0.20
2023-02-27T21:49:47.022Z,-0.20
2023-02-27T21:52:23.263Z,-0.20
2023-02-27T21:54:59.615Z,-0.20
2023-02-27T21:57:35.947Z,-0.20
2023-02-27T22:00:16.613Z,-0.20
2023-02-27T22:02:53.021Z,-0.20
2023-02-27T22:05:29.605Z,-0.20
2023-02-27T22:08:06.071Z,-0.10
2023-02-27T22:10:45.958Z,-0.10
2023-02-27T22:13:23.369Z,-0.10
2023-02-27T22:16:04.439Z,-0.10
2023-02-27T22:18:42.205Z,-0.10
2023-02-27T22:21:22.789Z,-0.10
2023-02-27T22:24:00.749Z,-0.10
2023-02-27T22:26:38.714Z,-0.10
2023-02-27T22:29:15.303Z,-0.10
2023-02-27T22:31:51.872Z,-0.10
2023-02-27T22:34:28.426Z,-0.16
2023-02-27T22:37:04.727Z,-0.20
2023-02-27T22:39:41.321Z,-0.14
2023-02-27T22:42:17.620Z,-0.10
2023-02-27T22:44:53.859Z,-0.10
2023-02-27T22:47:30.412Z,-0.18
2023-02-27T22:50:08.240Z,-0.20
2023-02-27T22:52:44.630Z,-0.20
2023-02-27T22:55:21.142Z,-0.20
2023-02-27T22:57:58.337Z,-0.20
2023-02-27T23:00:34.751Z,-0.20
2023-02-27T23:03:11.240Z,-0.14
2023-02-27T23:05:52.402Z,-0.14
2023-02-27T23:08:29.062Z,-0.10
2023-02-27T23:11:06.866Z,-0.16
2023-02-27T23:13:43.861Z,-0.20
2023-02-27T23:16:21.396Z,-0.20
2023-02-27T23:19:00.900Z,-0.20
2023-02-27T23:21:40.319Z,-0.20
2023-02-27T23:24:19.867Z,-0.20
2023-02-27T23:26:57.488Z,-0.20
2023-02-27T23:29:34.312Z,-0.20
2023-02-27T23:32:11.248Z,-0.20
2023-02-27T23:34:49.834Z,-0.20
2023-02-27T23:37:26.386Z,-0.20
2023-02-27T23:40:02.617Z,-0.22
2023-02-27T23:42:38.918Z,-0.22
2023-02-27T23:45:25.858Z,-0.24
2023-02-27T23:48:04.838Z,-0.30
2023-02-27T23:50:45.275Z,-0.30
2023-02-27T23:53:21.656Z,-0.30
2023-02-27T23:55:58.553Z,-0.30
2023-02-27T23:58:34.779Z,-0.30
